createdAt,value
2018-03-24T00:00:00.824Z,0
2018-03-24T00:01:00.553Z,0
2018-03-24T00:02:01.140Z,0
2018-03-24T00:03:01.148Z,0
2018-03-24T00:04:00.881Z,0
2018-03-24T00:05:01.447Z,0
2018-03-24T00:06:01.187Z,0
2018-03-24T00:07:00.922Z,0
2018-03-24T00:08:01.199Z,0
2018-03-24T00:09:01.510Z,0
2018-03-24T00:10:01.522Z,0
2018-03-24T00:11:01.238Z,0
2018-03-24T00:12:00.403Z,0
2018-03-24T00:13:01.313Z,0
2018-03-24T00:14:01.007Z,0
2018-03-24T00:15:00.733Z,0
2018-03-24T00:16:00.744Z,0
2018-03-24T00:17:01.344Z,0
2018-03-24T00:18:01.343Z,0
2018-03-24T00:19:00.774Z,0
2018-03-24T00:20:01.069Z,0
2018-03-24T00:21:01.082Z,0
2018-03-24T00:22:01.087Z,0
2018-03-24T00:23:01.400Z,0
2018-03-24T00:24:01.688Z,0
2018-03-24T00:25:01.150Z,0
2018-03-24T00:26:00.575Z,0
2018-03-24T00:27:01.440Z,0
2018-03-24T00:28:01.230Z,0
2018-03-24T00:29:00.612Z,0
2018-03-24T00:30:01.494Z,0
2018-03-24T00:31:01.490Z,0
2018-03-24T00:32:01.215Z,0
2018-03-24T00:33:01.842Z,0
2018-03-24T00:34:00.671Z,0
2018-03-24T00:35:01.828Z,0
2018-03-24T00:36:01.278Z,0
2018-03-24T00:37:01.563Z,0
2018-03-24T00:38:01.285Z,0
2018-03-24T00:39:01.316Z,0
2018-03-24T00:40:01.878Z,0
2018-03-24T00:41:01.638Z,0
2018-03-24T00:42:01.908Z,0
2018-03-24T00:43:01.416Z,0
2018-03-24T00:44:01.645Z,0
2018-03-24T00:45:01.943Z,0
2018-03-24T00:46:01.116Z,0
2018-03-24T00:47:01.117Z,0
2018-03-24T00:48:01.688Z,0
2018-03-24T00:49:01.480Z,0
2018-03-24T00:50:01.159Z,0
2018-03-24T00:51:01.730Z,0
2018-03-24T00:52:02.030Z,0
2018-03-24T00:53:02.151Z,0
2018-03-24T00:54:01.480Z,0
2018-03-24T00:55:01.497Z,0
2018-03-24T00:56:01.227Z,0
2018-03-24T00:57:01.527Z,0
2018-03-24T00:58:02.110Z,0
2018-03-24T00:59:01.826Z,0
2018-03-24T01:00:01.840Z,0
2018-03-24T01:01:01.859Z,0
2018-03-24T01:02:01.866Z,0
2018-03-24T01:03:01.927Z,0
2018-03-24T01:04:01.884Z,0
2018-03-24T01:05:02.182Z,0
2018-03-24T01:06:01.906Z,0
2018-03-24T01:07:01.993Z,0
2018-03-24T01:08:01.414Z,0
2018-03-24T01:09:01.960Z,0
2018-03-24T01:10:02.239Z,0
2018-03-24T01:11:01.961Z,0
2018-03-24T01:12:01.137Z,0
2018-03-24T01:13:01.994Z,0
2018-03-24T01:14:02.002Z,0
2018-03-24T01:15:02.016Z,0
2018-03-24T01:16:02.304Z,0
2018-03-24T01:17:01.766Z,0
2018-03-24T01:18:02.389Z,0
2018-03-24T01:19:02.352Z,0
2018-03-24T01:20:02.364Z,0
2018-03-24T01:21:02.095Z,0
2018-03-24T01:22:02.385Z,0
2018-03-24T01:23:01.597Z,0
2018-03-24T01:24:01.269Z,0
2018-03-24T01:25:02.137Z,0
2018-03-24T01:26:02.432Z,0
2018-03-24T01:27:02.166Z,0
2018-03-24T01:28:02.224Z,0
2018-03-24T01:29:02.468Z,0
2018-03-24T01:30:01.636Z,0
2018-03-24T01:31:01.933Z,0
2018-03-24T01:32:01.937Z,0
2018-03-24T01:33:02.258Z,0
2018-03-24T01:34:02.529Z,0
2018-03-24T01:35:02.542Z,0
2018-03-24T01:36:02.551Z,0
2018-03-24T01:37:01.713Z,0
2018-03-24T01:38:02.003Z,0
2018-03-24T01:39:02.015Z,0
2018-03-24T01:40:02.316Z,0
2018-03-24T01:41:02.324Z,0
2018-03-24T01:42:02.341Z,0
2018-03-24T01:43:01.779Z,0
2018-03-24T01:44:02.643Z,0
2018-03-24T01:45:02.378Z,0
2018-03-24T01:46:02.104Z,0
2018-03-24T01:47:02.400Z,0
2018-03-24T01:48:02.437Z,0
2018-03-24T01:49:02.140Z,0
2018-03-24T01:50:02.146Z,0
2018-03-24T01:51:02.453Z,0
2018-03-24T01:52:01.887Z,0
2018-03-24T01:53:02.748Z,0
2018-03-24T01:54:02.784Z,0
2018-03-24T01:55:02.493Z,0
2018-03-24T01:56:01.939Z,0
2018-03-24T01:57:02.799Z,0
2018-03-24T01:58:02.805Z,0
2018-03-24T01:59:02.256Z,0
2018-03-24T02:00:02.546Z,0
2018-03-24T02:01:02.286Z,0
2018-03-24T02:02:02.567Z,0
2018-03-24T02:03:02.299Z,0
2018-03-24T02:04:02.598Z,0
2018-03-24T02:05:02.038Z,0
2018-03-24T02:06:02.057Z,0
2018-03-24T02:07:02.642Z,0
2018-03-24T02:08:02.362Z,0
2018-03-24T02:09:02.661Z,0
2018-03-24T02:10:02.657Z,0
2018-03-24T02:11:02.695Z,0
2018-03-24T02:12:02.729Z,0
2018-03-24T02:13:02.711Z,0
2018-03-24T02:14:02.729Z,0
2018-03-24T02:15:02.734Z,0
2018-03-24T02:16:02.743Z,0
2018-03-24T02:17:02.468Z,0
2018-03-24T02:18:02.526Z,0
2018-03-24T02:19:03.065Z,0
2018-03-24T02:20:02.800Z,0
2018-03-24T02:21:02.795Z,0
2018-03-24T02:22:03.098Z,0
2018-03-24T02:23:02.533Z,0
2018-03-24T02:24:03.126Z,0
2018-03-24T02:25:02.555Z,0
2018-03-24T02:26:02.883Z,0
2018-03-24T02:27:02.868Z,0
2018-03-24T02:28:02.874Z,0
2018-03-24T02:29:03.179Z,0
2018-03-24T02:30:03.201Z,0
2018-03-24T02:31:02.932Z,0
2018-03-24T02:32:02.948Z,0
2018-03-24T02:33:03.036Z,0
2018-03-24T02:34:02.956Z,0
2018-03-24T02:35:03.245Z,0
2018-03-24T02:36:02.700Z,0
2018-03-24T02:37:02.705Z,0
2018-03-24T02:38:03.027Z,0
2018-03-24T02:39:02.738Z,0
2018-03-24T02:40:02.752Z,0
2018-03-24T02:41:03.034Z,0
2018-03-24T02:42:03.064Z,0
2018-03-24T02:43:03.343Z,0
2018-03-24T02:44:03.071Z,0
2018-03-24T02:45:03.090Z,0
2018-03-24T02:46:03.090Z,0
2018-03-24T02:47:03.386Z,0
2018-03-24T02:48:02.862Z,0
2018-03-24T02:49:03.127Z,0
2018-03-24T02:50:03.140Z,0
2018-03-24T02:51:03.142Z,0
2018-03-24T02:52:02.871Z,0
2018-03-24T02:53:03.457Z,0
2018-03-24T02:54:02.919Z,0
2018-03-24T02:55:03.200Z,0
2018-03-24T02:56:03.210Z,0
2018-03-24T02:57:03.502Z,0
2018-03-24T02:58:02.955Z,0
2018-03-24T02:59:03.298Z,0
2018-03-24T03:00:02.978Z,0
2018-03-24T03:01:03.264Z,0
2018-03-24T03:02:03.025Z,0
2018-03-24T03:03:03.018Z,0
2018-03-24T03:04:03.585Z,0
2018-03-24T03:05:03.039Z,0
2018-03-24T03:06:03.353Z,0
2018-03-24T03:07:03.044Z,0
2018-03-24T03:08:02.777Z,0
2018-03-24T03:09:03.647Z,0
2018-03-24T03:10:03.110Z,0
2018-03-24T03:11:03.383Z,0
2018-03-24T03:12:03.671Z,0
2018-03-24T03:13:03.703Z,0
2018-03-24T03:14:03.466Z,0
2018-03-24T03:15:03.144Z,0
2018-03-24T03:16:02.872Z,0
2018-03-24T03:17:03.447Z,0
2018-03-24T03:18:03.743Z,0
2018-03-24T03:19:02.898Z,0
2018-03-24T03:20:03.194Z,0
2018-03-24T03:21:03.785Z,0
2018-03-24T03:22:03.219Z,0
2018-03-24T03:23:03.807Z,0
2018-03-24T03:24:03.580Z,0
2018-03-24T03:25:03.545Z,0
2018-03-24T03:26:03.548Z,0
2018-03-24T03:27:03.862Z,0
2018-03-24T03:28:04.114Z,0
2018-03-24T03:29:03.348Z,0
2018-03-24T03:30:03.045Z,0
2018-03-24T03:31:03.050Z,0
2018-03-24T03:32:03.623Z,0
2018-03-24T03:33:04.027Z,0
2018-03-24T03:34:03.087Z,0
2018-03-24T03:35:03.659Z,0
2018-03-24T03:36:03.684Z,0
2018-03-24T03:37:03.972Z,0
2018-03-24T03:38:03.396Z,0
2018-03-24T03:39:03.467Z,0
2018-03-24T03:40:03.151Z,0
2018-03-24T03:41:03.435Z,0
2018-03-24T03:42:03.727Z,0
2018-03-24T03:43:03.456Z,0
2018-03-24T03:44:03.469Z,0
2018-03-24T03:45:03.791Z,0
2018-03-24T03:46:03.517Z,0
2018-03-24T03:47:03.505Z,0
2018-03-24T03:48:03.802Z,0
2018-03-24T03:49:03.815Z,0
2018-03-24T03:50:03.826Z,0
2018-03-24T03:51:03.553Z,0
2018-03-24T03:52:03.564Z,0
2018-03-24T03:53:03.579Z,0
2018-03-24T03:54:03.592Z,0
2018-03-24T03:55:03.599Z,0
2018-03-24T03:56:04.200Z,0
2018-03-24T03:57:04.194Z,0
2018-03-24T03:58:03.911Z,0
2018-03-24T03:59:03.919Z,0
2018-03-24T04:00:03.935Z,0
2018-03-24T04:01:03.387Z,0
2018-03-24T04:02:03.695Z,0
2018-03-24T04:03:03.991Z,0
2018-03-24T04:04:03.691Z,0
2018-03-24T04:05:04.287Z,0
2018-03-24T04:06:04.007Z,0
2018-03-24T04:07:04.014Z,0
2018-03-24T04:08:03.753Z,0
2018-03-24T04:09:03.756Z,0
2018-03-24T04:10:04.104Z,0
2018-03-24T04:11:03.507Z,0
2018-03-24T04:12:03.792Z,0
2018-03-24T04:13:04.102Z,0
2018-03-24T04:14:03.814Z,0
2018-03-24T04:15:04.387Z,0
2018-03-24T04:16:04.117Z,0
2018-03-24T04:17:04.429Z,0
2018-03-24T04:18:04.140Z,0
2018-03-24T04:19:04.445Z,0
2018-03-24T04:20:04.213Z,0
2018-03-24T04:21:04.176Z,0
2018-03-24T04:22:03.623Z,0
2018-03-24T04:23:03.908Z,0
2018-03-24T04:24:04.211Z,0
2018-03-24T04:25:03.929Z,0
2018-03-24T04:26:04.512Z,0
2018-03-24T04:27:04.247Z,0
2018-03-24T04:28:04.256Z,0
2018-03-24T04:29:03.983Z,0
2018-03-24T04:30:04.557Z,0
2018-03-24T04:31:04.007Z,0
2018-03-24T04:32:04.585Z,0
2018-03-24T04:33:04.024Z,0
2018-03-24T04:34:04.329Z,0
2018-03-24T04:35:04.333Z,0
2018-03-24T04:36:03.774Z,0
2018-03-24T04:37:04.350Z,0
2018-03-24T04:38:04.366Z,0
2018-03-24T04:39:04.098Z,0
2018-03-24T04:40:04.389Z,0
2018-03-24T04:41:04.112Z,0
2018-03-24T04:42:04.413Z,0
2018-03-24T04:43:04.700Z,0
2018-03-24T04:44:04.143Z,0
2018-03-24T04:45:04.170Z,0
2018-03-24T04:46:03.888Z,0
2018-03-24T04:47:04.479Z,0
2018-03-24T04:48:03.910Z,0
2018-03-24T04:49:04.774Z,0
2018-03-24T04:50:04.781Z,0
2018-03-24T04:51:04.521Z,0
2018-03-24T04:52:04.239Z,0
2018-03-24T04:53:04.538Z,0
2018-03-24T04:54:04.546Z,0
2018-03-24T04:55:04.554Z,0
2018-03-24T04:56:04.283Z,0
2018-03-24T04:57:04.010Z,0
2018-03-24T04:58:04.037Z,0
2018-03-24T04:59:04.880Z,0
2018-03-24T05:00:04.628Z,0
2018-03-24T05:01:04.619Z,0
2018-03-24T05:02:04.355Z,0
2018-03-24T05:03:04.362Z,0
2018-03-24T05:04:04.741Z,0
2018-03-24T05:05:04.662Z,0
2018-03-24T05:06:04.686Z,0
2018-03-24T05:07:04.692Z,0
2018-03-24T05:08:04.409Z,0
2018-03-24T05:09:04.143Z,0
2018-03-24T05:10:04.731Z,0
2018-03-24T05:11:05.019Z,0
2018-03-24T05:12:05.033Z,0
2018-03-24T05:13:04.749Z,0
2018-03-24T05:14:04.917Z,0
2018-03-24T05:15:04.784Z,0
2018-03-24T05:16:04.787Z,0
2018-03-24T05:17:05.091Z,0
2018-03-24T05:18:04.522Z,0
2018-03-24T05:19:04.817Z,0
2018-03-24T05:20:05.111Z,0
2018-03-24T05:21:05.134Z,0
2018-03-24T05:22:05.152Z,0
2018-03-24T05:23:05.169Z,0
2018-03-24T05:24:05.182Z,0
2018-03-24T05:25:04.903Z,0
2018-03-24T05:26:04.610Z,0
2018-03-24T05:27:04.641Z,0
2018-03-24T05:28:04.939Z,0
2018-03-24T05:29:05.303Z,0
2018-03-24T05:30:04.373Z,0
2018-03-24T05:31:05.243Z,0
2018-03-24T05:32:04.962Z,0
2018-03-24T05:33:04.978Z,0
2018-03-24T05:34:04.700Z,0
2018-03-24T05:35:04.713Z,0
2018-03-24T05:36:05.028Z,0
2018-03-24T05:37:04.173Z,0
2018-03-24T05:38:05.044Z,0
2018-03-24T05:39:05.125Z,0
2018-03-24T05:40:04.483Z,0
2018-03-24T05:41:05.062Z,0
2018-03-24T05:42:04.289Z,0
2018-03-24T05:43:05.366Z,0
2018-03-24T05:44:05.404Z,0
2018-03-24T05:45:05.174Z,0
2018-03-24T05:46:04.843Z,0
2018-03-24T05:47:05.137Z,0
2018-03-24T05:48:04.289Z,0
2018-03-24T05:49:04.584Z,0
2018-03-24T05:50:05.473Z,0
2018-03-24T05:51:04.892Z,0
2018-03-24T05:52:05.215Z,0
2018-03-24T05:53:05.483Z,0
2018-03-24T05:54:05.508Z,0
2018-03-24T05:55:05.455Z,0
2018-03-24T05:56:04.960Z,0
2018-03-24T05:57:05.544Z,0
2018-03-24T05:58:05.282Z,0
2018-03-24T05:59:05.550Z,0
2018-03-24T06:00:05.292Z,0
2018-03-24T06:01:04.715Z,0
2018-03-24T06:02:05.760Z,0
2018-03-24T06:03:05.313Z,5
2018-03-24T06:04:05.790Z,5
2018-03-24T06:05:05.099Z,5
2018-03-24T06:06:05.362Z,5
2018-03-24T06:07:05.641Z,5
2018-03-24T06:08:05.108Z,5
2018-03-24T06:09:05.092Z,5
2018-03-24T06:10:05.101Z,5
2018-03-24T06:11:05.103Z,5
2018-03-24T06:12:05.407Z,5
2018-03-24T06:13:05.137Z,5
2018-03-24T06:14:05.576Z,5
2018-03-24T06:15:05.204Z,5
2018-03-24T06:16:05.166Z,5
2018-03-24T06:17:05.869Z,5
2018-03-24T06:18:05.479Z,5
2018-03-24T06:19:05.202Z,5
2018-03-24T06:20:05.525Z,5
2018-03-24T06:21:05.534Z,5
2018-03-24T06:22:05.304Z,5
2018-03-24T06:23:05.546Z,5
2018-03-24T06:24:05.280Z,5
2018-03-24T06:25:05.620Z,5
2018-03-24T06:26:05.004Z,5
2018-03-24T06:27:05.687Z,5
2018-03-24T06:28:05.376Z,5
2018-03-24T06:29:05.587Z,5
2018-03-24T06:30:04.777Z,5
2018-03-24T06:31:05.594Z,5
2018-03-24T06:32:05.939Z,5
2018-03-24T06:33:05.927Z,5
2018-03-24T06:34:05.938Z,5
2018-03-24T06:35:05.421Z,5
2018-03-24T06:36:05.137Z,5
2018-03-24T06:37:05.679Z,5
2018-03-24T06:38:06.103Z,5
2018-03-24T06:39:05.419Z,5
2018-03-24T06:40:05.469Z,5
2018-03-24T06:41:06.112Z,5
2018-03-24T06:42:05.760Z,5
2018-03-24T06:43:05.766Z,5
2018-03-24T06:44:05.768Z,5
2018-03-24T06:45:05.607Z,5
2018-03-24T06:46:05.794Z,5
2018-03-24T06:47:05.794Z,5
2018-03-24T06:48:05.283Z,5
2018-03-24T06:49:05.556Z,5
2018-03-24T06:50:05.896Z,5
2018-03-24T06:51:05.281Z,5
2018-03-24T06:52:05.583Z,5
2018-03-24T06:53:05.591Z,5
2018-03-24T06:54:06.150Z,5
2018-03-24T06:55:05.044Z,5
2018-03-24T06:56:05.397Z,5
2018-03-24T06:57:05.920Z,5
2018-03-24T06:58:05.932Z,5
2018-03-24T06:59:05.665Z,5
2018-03-24T07:00:06.048Z,5
2018-03-24T07:01:05.682Z,5
2018-03-24T07:02:05.705Z,5
2018-03-24T07:03:05.683Z,5
2018-03-24T07:04:06.279Z,5
2018-03-24T07:05:06.275Z,5
2018-03-24T07:06:06.076Z,5
2018-03-24T07:07:06.019Z,5
2018-03-24T07:08:05.478Z,5
2018-03-24T07:09:05.764Z,5
2018-03-24T07:10:05.552Z,5
2018-03-24T07:11:05.854Z,5
2018-03-24T07:12:06.098Z,5
2018-03-24T07:13:06.094Z,5
2018-03-24T07:14:05.556Z,5
2018-03-24T07:15:06.119Z,5
2018-03-24T07:16:06.131Z,10
2018-03-24T07:17:06.133Z,5
2018-03-24T07:18:05.562Z,5
2018-03-24T07:19:05.577Z,5
2018-03-24T07:20:05.875Z,5
2018-03-24T07:21:06.478Z,10
2018-03-24T07:22:05.896Z,10
2018-03-24T07:23:06.310Z,10
2018-03-24T07:24:05.937Z,10
2018-03-24T07:25:06.210Z,5
2018-03-24T07:26:05.945Z,5
2018-03-24T07:27:05.960Z,5
2018-03-24T07:28:05.969Z,5
2018-03-24T07:29:06.014Z,5
2018-03-24T07:30:06.563Z,5
2018-03-24T07:31:06.003Z,5
2018-03-24T07:32:05.731Z,5
2018-03-24T07:33:06.042Z,5
2018-03-24T07:34:06.636Z,5
2018-03-24T07:35:05.766Z,5
2018-03-24T07:36:06.105Z,5
2018-03-24T07:37:06.072Z,5
2018-03-24T07:38:06.366Z,5
2018-03-24T07:39:06.098Z,5
2018-03-24T07:40:06.407Z,5
2018-03-24T07:41:06.168Z,10
2018-03-24T07:42:06.121Z,10
2018-03-24T07:43:06.423Z,10
2018-03-24T07:44:06.449Z,10
2018-03-24T07:45:06.445Z,10
2018-03-24T07:46:06.257Z,10
2018-03-24T07:47:06.224Z,10
2018-03-24T07:48:06.759Z,10
2018-03-24T07:49:06.212Z,10
2018-03-24T07:50:06.224Z,10
2018-03-24T07:51:06.520Z,10
2018-03-24T07:52:06.251Z,10
2018-03-24T07:53:06.835Z,10
2018-03-24T07:54:06.276Z,10
2018-03-24T07:55:06.568Z,10
2018-03-24T07:56:06.578Z,15
2018-03-24T07:57:06.297Z,15
2018-03-24T07:58:06.608Z,15
2018-03-24T07:59:06.331Z,15
2018-03-24T08:00:06.642Z,15
2018-03-24T08:01:06.351Z,15
2018-03-24T08:02:06.654Z,15
2018-03-24T08:03:06.683Z,15
2018-03-24T08:04:06.667Z,10
2018-03-24T08:05:06.118Z,10
2018-03-24T08:06:06.750Z,10
2018-03-24T08:07:06.423Z,10
2018-03-24T08:08:07.013Z,10
2018-03-24T08:09:06.732Z,15
2018-03-24T08:10:06.502Z,15
2018-03-24T08:11:06.536Z,15
2018-03-24T08:12:06.770Z,15
2018-03-24T08:13:06.499Z,15
2018-03-24T08:14:06.514Z,15
2018-03-24T08:15:06.239Z,15
2018-03-24T08:16:06.255Z,15
2018-03-24T08:17:07.112Z,15
2018-03-24T08:18:06.843Z,15
2018-03-24T08:19:06.857Z,15
2018-03-24T08:20:06.311Z,15
2018-03-24T08:21:07.194Z,15
2018-03-24T08:22:06.894Z,15
2018-03-24T08:23:06.664Z,20
2018-03-24T08:24:06.913Z,20
2018-03-24T08:25:06.935Z,20
2018-03-24T08:26:07.235Z,20
2018-03-24T08:27:06.394Z,20
2018-03-24T08:28:07.266Z,20
2018-03-24T08:29:06.979Z,15
2018-03-24T08:30:06.710Z,15
2018-03-24T08:31:07.014Z,15
2018-03-24T08:32:06.447Z,15
2018-03-24T08:33:07.316Z,20
2018-03-24T08:34:06.758Z,20
2018-03-24T08:35:07.058Z,15
2018-03-24T08:36:07.117Z,15
2018-03-24T08:37:06.804Z,15
2018-03-24T08:38:06.525Z,15
2018-03-24T08:39:07.404Z,20
2018-03-24T08:40:06.555Z,20
2018-03-24T08:41:06.574Z,15
2018-03-24T08:42:07.155Z,15
2018-03-24T08:43:06.879Z,15
2018-03-24T08:44:07.187Z,15
2018-03-24T08:45:07.194Z,15
2018-03-24T08:46:07.482Z,15
2018-03-24T08:47:07.213Z,15
2018-03-24T08:48:07.509Z,15
2018-03-24T08:49:06.962Z,15
2018-03-24T08:50:07.629Z,15
2018-03-24T08:51:07.036Z,15
2018-03-24T08:52:07.277Z,15
2018-03-24T08:53:07.301Z,15
2018-03-24T08:54:07.039Z,15
2018-03-24T08:55:07.622Z,15
2018-03-24T08:56:07.390Z,15
2018-03-24T08:57:07.344Z,15
2018-03-24T08:58:07.370Z,15
2018-03-24T08:59:07.374Z,15
2018-03-24T09:00:07.109Z,15
2018-03-24T09:01:07.120Z,10
2018-03-24T09:02:07.178Z,10
2018-03-24T09:03:07.705Z,10
2018-03-24T09:04:07.174Z,10
2018-03-24T09:05:07.460Z,10
2018-03-24T09:06:07.523Z,10
2018-03-24T09:07:07.489Z,15
2018-03-24T09:08:07.779Z,15
2018-03-24T09:09:07.516Z,15
2018-03-24T09:10:07.527Z,15
2018-03-24T09:11:07.825Z,15
2018-03-24T09:12:07.286Z,15
2018-03-24T09:13:07.569Z,15
2018-03-24T09:14:07.311Z,15
2018-03-24T09:15:07.715Z,15
2018-03-24T09:16:07.609Z,15
2018-03-24T09:17:07.396Z,10
2018-03-24T09:18:07.370Z,10
2018-03-24T09:19:07.935Z,10
2018-03-24T09:20:07.394Z,10
2018-03-24T09:21:07.742Z,10
2018-03-24T09:22:07.989Z,15
2018-03-24T09:23:07.423Z,15
2018-03-24T09:24:08.028Z,15
2018-03-24T09:25:07.738Z,15
2018-03-24T09:26:07.488Z,15
2018-03-24T09:27:07.479Z,15
2018-03-24T09:28:08.007Z,15
2018-03-24T09:29:07.218Z,15
2018-03-24T09:30:06.953Z,15
2018-03-24T09:31:07.832Z,15
2018-03-24T09:32:07.853Z,15
2018-03-24T09:33:07.568Z,15
2018-03-24T09:34:07.890Z,15
2018-03-24T09:35:07.635Z,15
2018-03-24T09:36:07.903Z,15
2018-03-24T09:37:07.912Z,15
2018-03-24T09:38:07.927Z,15
2018-03-24T09:39:07.653Z,15
2018-03-24T09:40:07.687Z,15
2018-03-24T09:41:07.686Z,15
2018-03-24T09:42:07.439Z,15
2018-03-24T09:43:07.997Z,15
2018-03-24T09:44:08.295Z,15
2018-03-24T09:45:08.025Z,15
2018-03-24T09:46:07.796Z,15
2018-03-24T09:47:07.769Z,15
2018-03-24T09:48:08.078Z,15
2018-03-24T09:49:08.082Z,15
2018-03-24T09:50:07.815Z,15
2018-03-24T09:51:07.829Z,15
2018-03-24T09:52:08.191Z,15
2018-03-24T09:53:07.885Z,15
2018-03-24T09:54:07.887Z,15
2018-03-24T09:55:08.171Z,15
2018-03-24T09:56:07.919Z,15
2018-03-24T09:57:07.931Z,15
2018-03-24T09:58:07.943Z,15
2018-03-24T09:59:07.958Z,15
2018-03-24T10:00:07.973Z,15
2018-03-24T10:01:08.265Z,15
2018-03-24T10:02:08.313Z,15
2018-03-24T10:03:07.727Z,15
2018-03-24T10:04:08.599Z,15
2018-03-24T10:05:08.326Z,15
2018-03-24T10:06:08.344Z,15
2018-03-24T10:07:07.787Z,15
2018-03-24T10:08:08.665Z,15
2018-03-24T10:09:08.102Z,15
2018-03-24T10:10:08.417Z,15
2018-03-24T10:11:08.173Z,15
2018-03-24T10:12:08.781Z,15
2018-03-24T10:13:08.743Z,15
2018-03-24T10:14:08.200Z,15
2018-03-24T10:15:08.200Z,15
2018-03-24T10:16:08.227Z,15
2018-03-24T10:17:08.512Z,15
2018-03-24T10:18:07.698Z,15
2018-03-24T10:19:07.977Z,15
2018-03-24T10:20:08.280Z,15
2018-03-24T10:21:08.012Z,15
2018-03-24T10:22:08.026Z,15
2018-03-24T10:23:08.605Z,20
2018-03-24T10:24:08.061Z,20
2018-03-24T10:25:08.636Z,20
2018-03-24T10:26:08.374Z,20
2018-03-24T10:27:08.395Z,20
2018-03-24T10:28:08.689Z,20
2018-03-24T10:29:08.715Z,20
2018-03-24T10:30:08.443Z,20
2018-03-24T10:31:08.451Z,20
2018-03-24T10:32:08.763Z,20
2018-03-24T10:33:08.773Z,20
2018-03-24T10:34:08.791Z,20
2018-03-24T10:35:09.113Z,20
2018-03-24T10:36:08.250Z,20
2018-03-24T10:37:08.609Z,20
2018-03-24T10:38:08.863Z,20
2018-03-24T10:39:09.160Z,20
2018-03-24T10:40:08.884Z,20
2018-03-24T10:41:08.614Z,20
2018-03-24T10:42:08.343Z,20
2018-03-24T10:43:08.365Z,20
2018-03-24T10:44:08.956Z,25
2018-03-24T10:45:08.690Z,25
2018-03-24T10:46:08.980Z,25
2018-03-24T10:47:08.724Z,25
2018-03-24T10:48:08.726Z,25
2018-03-24T10:49:09.322Z,25
2018-03-24T10:50:09.335Z,25
2018-03-24T10:51:09.069Z,25
2018-03-24T10:52:08.914Z,25
2018-03-24T10:53:09.102Z,25
2018-03-24T10:54:08.833Z,25
2018-03-24T10:55:08.850Z,25
2018-03-24T10:56:09.150Z,25
2018-03-24T10:57:09.166Z,25
2018-03-24T10:58:08.951Z,25
2018-03-24T10:59:08.978Z,30
2018-03-24T11:00:09.219Z,30
2018-03-24T11:01:09.290Z,30
2018-03-24T11:02:09.044Z,35
2018-03-24T11:03:09.559Z,35
2018-03-24T11:04:09.589Z,35
2018-03-24T11:05:09.592Z,35
2018-03-24T11:06:09.036Z,35
2018-03-24T11:07:09.334Z,40
2018-03-24T11:08:08.797Z,45
2018-03-24T11:09:09.378Z,40
2018-03-24T11:10:08.822Z,40
2018-03-24T11:11:09.123Z,40
2018-03-24T11:12:09.421Z,40
2018-03-24T11:13:08.630Z,40
2018-03-24T11:14:09.463Z,40
2018-03-24T11:15:09.523Z,35
2018-03-24T11:16:09.496Z,35
2018-03-24T11:17:09.518Z,35
2018-03-24T11:18:08.999Z,35
2018-03-24T11:19:09.553Z,40
2018-03-24T11:20:09.565Z,40
2018-03-24T11:21:09.300Z,40
2018-03-24T11:22:09.316Z,40
2018-03-24T11:23:09.620Z,40
2018-03-24T11:24:09.436Z,45
2018-03-24T11:25:09.698Z,45
2018-03-24T11:26:09.959Z,45
2018-03-24T11:27:10.008Z,45
2018-03-24T11:28:09.771Z,45
2018-03-24T11:29:08.876Z,45
2018-03-24T11:30:09.483Z,50
2018-03-24T11:31:09.774Z,50
2018-03-24T11:32:09.504Z,50
2018-03-24T11:33:09.289Z,50
2018-03-24T11:34:09.246Z,45
2018-03-24T11:35:09.548Z,45
2018-03-24T11:36:10.169Z,45
2018-03-24T11:37:10.155Z,45
2018-03-24T11:38:09.394Z,45
2018-03-24T11:39:09.918Z,45
2018-03-24T11:40:09.937Z,45
2018-03-24T11:41:10.275Z,45
2018-03-24T11:42:09.975Z,40
2018-03-24T11:43:09.698Z,40
2018-03-24T11:44:09.751Z,45
2018-03-24T11:45:10.134Z,45
2018-03-24T11:46:09.758Z,40
2018-03-24T11:47:10.342Z,45
2018-03-24T11:48:10.128Z,45
2018-03-24T11:49:09.813Z,45
2018-03-24T11:50:10.166Z,50
2018-03-24T11:51:09.560Z,50
2018-03-24T11:52:10.435Z,50
2018-03-24T11:53:09.884Z,45
2018-03-24T11:54:09.961Z,45
2018-03-24T11:55:09.985Z,45
2018-03-24T11:56:10.291Z,45
2018-03-24T11:57:10.243Z,50
2018-03-24T11:58:09.711Z,50
2018-03-24T11:59:10.281Z,50
2018-03-24T12:00:09.468Z,50
2018-03-24T12:01:10.319Z,50
2018-03-24T12:02:10.348Z,50
2018-03-24T12:03:10.068Z,50
2018-03-24T12:04:09.831Z,50
2018-03-24T12:05:10.389Z,50
2018-03-24T12:06:10.157Z,50
2018-03-24T12:07:10.432Z,50
2018-03-24T12:08:10.230Z,50
2018-03-24T12:09:10.248Z,50
2018-03-24T12:10:10.211Z,50
2018-03-24T12:11:10.810Z,50
2018-03-24T12:12:10.249Z,50
2018-03-24T12:13:11.125Z,50
2018-03-24T12:14:11.055Z,50
2018-03-24T12:15:10.596Z,45
2018-03-24T12:16:10.316Z,50
2018-03-24T12:17:10.959Z,45
2018-03-24T12:18:10.653Z,45
2018-03-24T12:19:10.662Z,45
2018-03-24T12:20:10.686Z,45
2018-03-24T12:21:10.580Z,50
2018-03-24T12:22:11.036Z,50
2018-03-24T12:23:10.500Z,55
2018-03-24T12:24:10.466Z,55
2018-03-24T12:25:09.918Z,55
2018-03-24T12:26:10.517Z,55
2018-03-24T12:27:10.244Z,55
2018-03-24T12:28:10.544Z,60
2018-03-24T12:29:10.564Z,60
2018-03-24T12:30:10.589Z,60
2018-03-24T12:31:10.035Z,60
2018-03-24T12:32:10.626Z,55
2018-03-24T12:33:10.366Z,55
2018-03-24T12:34:10.946Z,50
2018-03-24T12:35:11.245Z,50
2018-03-24T12:36:11.273Z,45
2018-03-24T12:37:10.713Z,45
2018-03-24T12:38:11.307Z,45
2018-03-24T12:39:11.041Z,40
2018-03-24T12:40:11.360Z,45
2018-03-24T12:41:11.075Z,50
2018-03-24T12:42:10.819Z,50
2018-03-24T12:43:11.241Z,50
2018-03-24T12:44:10.285Z,50
2018-03-24T12:45:11.163Z,50
2018-03-24T12:46:11.512Z,50
2018-03-24T12:47:11.480Z,50
2018-03-24T12:48:10.981Z,45
2018-03-24T12:49:11.224Z,45
2018-03-24T12:50:11.256Z,40
2018-03-24T12:51:11.560Z,40
2018-03-24T12:52:11.294Z,40
2018-03-24T12:53:11.312Z,40
2018-03-24T12:54:11.052Z,40
2018-03-24T12:55:11.344Z,40
2018-03-24T12:56:10.799Z,35
2018-03-24T12:57:11.387Z,35
2018-03-24T12:58:10.886Z,40
2018-03-24T12:59:11.174Z,40
2018-03-24T13:00:11.734Z,40
2018-03-24T13:01:11.747Z,45
2018-03-24T13:02:11.281Z,45
2018-03-24T13:03:10.658Z,45
2018-03-24T13:04:11.813Z,45
2018-03-24T13:05:10.976Z,45
2018-03-24T13:06:11.280Z,45
2018-03-24T13:07:11.585Z,45
2018-03-24T13:08:11.318Z,45
2018-03-24T13:09:11.334Z,45
2018-03-24T13:10:11.364Z,45
2018-03-24T13:11:11.661Z,45
2018-03-24T13:12:11.438Z,50
2018-03-24T13:13:11.703Z,55
2018-03-24T13:14:12.092Z,55
2018-03-24T13:15:11.751Z,55
2018-03-24T13:16:11.475Z,55
2018-03-24T13:17:11.538Z,50
2018-03-24T13:18:11.525Z,50
2018-03-24T13:19:11.535Z,50
2018-03-24T13:20:11.835Z,50
2018-03-24T13:21:11.859Z,50
2018-03-24T13:22:11.877Z,50
2018-03-24T13:23:11.385Z,45
2018-03-24T13:24:11.915Z,50
2018-03-24T13:25:11.946Z,50
2018-03-24T13:26:12.399Z,50
2018-03-24T13:27:11.979Z,50
2018-03-24T13:28:12.045Z,50
2018-03-24T13:29:12.018Z,50
2018-03-24T13:30:12.050Z,45
2018-03-24T13:31:12.058Z,45
2018-03-24T13:32:12.072Z,45
2018-03-24T13:33:11.813Z,40
2018-03-24T13:34:11.546Z,40
2018-03-24T13:35:12.430Z,35
2018-03-24T13:36:11.880Z,30
2018-03-24T13:37:11.897Z,30
2018-03-24T13:38:12.248Z,30
2018-03-24T13:39:12.218Z,30
2018-03-24T13:40:12.241Z,30
2018-03-24T13:41:11.974Z,35
2018-03-24T13:42:12.346Z,35
2018-03-24T13:43:11.730Z,35
2018-03-24T13:44:12.604Z,30
2018-03-24T13:45:12.057Z,30
2018-03-24T13:46:12.086Z,30
2018-03-24T13:47:12.673Z,30
2018-03-24T13:48:12.404Z,30
2018-03-24T13:49:12.713Z,30
2018-03-24T13:50:12.157Z,35
2018-03-24T13:51:12.177Z,40
2018-03-24T13:52:12.769Z,40
2018-03-24T13:53:12.555Z,40
2018-03-24T13:54:12.521Z,40
2018-03-24T13:55:12.258Z,40
2018-03-24T13:56:12.557Z,40
2018-03-24T13:57:12.586Z,40
2018-03-24T13:58:12.608Z,40
2018-03-24T13:59:12.346Z,40
2018-03-24T14:00:12.956Z,40
2018-03-24T14:01:12.660Z,45
2018-03-24T14:02:12.686Z,45
2018-03-24T14:03:12.990Z,45
2018-03-24T14:04:12.445Z,45
2018-03-24T14:05:11.894Z,45
2018-03-24T14:06:12.488Z,45
2018-03-24T14:07:12.788Z,45
2018-03-24T14:08:13.135Z,45
2018-03-24T14:09:13.108Z,45
2018-03-24T14:10:12.842Z,45
2018-03-24T14:11:12.889Z,40
2018-03-24T14:12:12.879Z,40
2018-03-24T14:13:12.621Z,40
2018-03-24T14:14:12.926Z,40
2018-03-24T14:15:12.657Z,40
2018-03-24T14:16:12.681Z,40
2018-03-24T14:17:12.988Z,40
2018-03-24T14:18:12.720Z,35
2018-03-24T14:19:13.047Z,30
2018-03-24T14:20:13.051Z,30
2018-03-24T14:21:12.789Z,25
2018-03-24T14:22:12.518Z,25
2018-03-24T14:23:13.305Z,25
2018-03-24T14:24:13.328Z,25
2018-03-24T14:25:12.866Z,25
2018-03-24T14:26:13.172Z,25
2018-03-24T14:27:13.192Z,30
2018-03-24T14:28:12.975Z,35
2018-03-24T14:29:13.530Z,35
2018-03-24T14:30:12.397Z,30
2018-03-24T14:31:12.986Z,25